Portada
METAR-TAF:

METAR-TAF

Aeropuertos :

Gerona, España

Aeropuerto de Gerona

latitud: 41-54N, longitud: 002-46E, altitud: 143 m

Observación

El informe se hizo hace 15 minutos, a las 08:00 UTC
Viento 1 kt con dirección variable
Temperatura 9°C
Humedad 87%
Presión 1026 hPa
Visibilidad 10 km o más
sin nubes por debajo de 1500 m y sin presencia de cumulonimbus.

METAR: LEGE 280800Z VRB01KT CAVOK 09/07 Q1026 NOSIG

Hora: 10:15 (08:15 UTC)

Pronóstico

El informe se hizo hace 3 horas y 15 minutos, a las 05:00 UTC
Pronóstico válido del 28 a las 06 UTC al 29 a las 06 UTC
Viento 4 kt con dirección variable
Visibilidad 10 km o más
Escasas nubes a una altura de 4000 ft
Temporalmente
del 28 a las 08 UTC al 28 a las 16 UTC
Viento 7 kt del norte-noreste

TAF: LEGE 280500Z 2806/2906 VRB04KT 9999 FEW040 TX20/2813Z TN06/2807Z TEMPO 2808/2816 03007KT

Observaciones y pronósticos meteorológicos de más de 4000 aeropuertos (mensajes METAR y TAF).

Los puntos amarillos y rojos representan las estaciones disponibles.

Ponga el ratón en el punto deseado para ver el nombre de la estación.

Haga clic para ver las observaciones y los pronósticos meteorológicos.

Para cambiar el mapa : haga clic en los botones verdes con una cruz de color negro para hacer un zoom, en el botón verde con un guión para alejar o en las flechas verdes para mapas adyacentes.


METAR-TAF: